Time;durP1;ratioP1;P1;durP2;ratioP2;P2;SDS_P1;SDS_P2;PMS_P1;PMS_P2;Temp;Humidity;BMP_temperature;BMP_pressure;BME280_temperature;BME280_humidity;BME280_pressure;Samples;Min_cycle;Max_cycle;Signal;HPM_P1;HPM_P2
2023/06/30 04:05:59;;;;;;;4.63;4.30;;;19.20;99.90;;;;;;5278284;23;20498;-70
2023/06/30 04:08:25;;;;;;;4.23;3.67;;;19.20;99.90;;;;;;4993755;28;20757;-70
2023/06/30 04:10:50;;;;;;;3.97;3.77;;;19.20;99.90;;;;;;4995999;28;20427;-71
2023/06/30 04:13:16;;;;;;;4.33;4.03;;;19.30;99.90;;;;;;4996237;28;20175;-71
2023/06/30 04:15:42;;;;;;;3.50;3.20;;;19.30;99.90;;;;;;4997934;28;20290;-70
2023/06/30 04:18:08;;;;;;;6.13;4.10;;;19.40;99.90;;;;;;4997896;28;20203;-71
2023/06/30 04:20:33;;;;;;;4.03;3.53;;;19.40;99.90;;;;;;4997808;28;20410;-71
2023/06/30 04:22:59;;;;;;;3.80;3.50;;;19.40;99.90;;;;;;4996438;28;20183;-71
2023/06/30 04:25:24;;;;;;;3.47;3.27;;;19.40;99.90;;;;;;4997239;28;20187;-71
2023/06/30 04:27:50;;;;;;;4.80;4.40;;;19.50;99.90;;;;;;4998085;28;20176;-71
2023/06/30 04:30:16;;;;;;;3.93;3.50;;;19.60;99.90;;;;;;4997793;28;20182;-71
2023/06/30 04:32:41;;;;;;;4.00;3.70;;;19.80;99.90;;;;;;4997467;28;20262;-70
2023/06/30 04:35:07;;;;;;;4.17;3.87;;;19.90;99.90;;;;;;4994810;28;20202;-71
2023/06/30 04:37:39;;;;;;;4.53;4.13;;;19.90;99.90;;;;;;4997680;28;20203;-69
2023/06/30 04:40:08;;;;;;;3.63;3.40;;;20.00;99.90;;;;;;4997702;28;20506;-70
2023/06/30 04:42:33;;;;;;;4.00;3.60;;;20.10;99.90;;;;;;4997174;28;20461;-70
2023/06/30 04:44:59;;;;;;;4.40;4.10;;;20.20;99.90;;;;;;4996836;28;20920;-70
2023/06/30 04:47:24;;;;;;;3.97;3.77;;;20.30;99.90;;;;;;4997273;28;20176;-69
2023/06/30 04:49:50;;;;;;;3.53;3.33;;;20.40;99.90;;;;;;4997044;28;20179;-69
2023/06/30 04:52:15;;;;;;;3.73;3.47;;;20.40;99.90;;;;;;4996961;28;20183;-71
2023/06/30 04:54:41;;;;;;;4.60;4.20;;;20.50;99.90;;;;;;4996833;28;20203;-70
2023/06/30 04:57:07;;;;;;;3.40;3.17;;;20.50;99.90;;;;;;4995556;28;20183;-71
2023/06/30 04:59:32;;;;;;;4.40;4.00;;;20.50;99.90;;;;;;4995660;28;20215;-70
2023/06/30 05:02:00;;;;;;;4.03;3.73;;;20.50;99.90;;;;;;4996830;28;20265;-71
2023/06/30 05:04:25;;;;;;;4.47;4.13;;;20.50;99.90;;;;;;4996256;28;20198;-70
2023/06/30 05:06:51;;;;;;;4.33;4.00;;;20.50;99.90;;;;;;4996449;28;20438;-67
2023/06/30 05:09:18;;;;;;;4.00;3.70;;;20.50;99.90;;;;;;4996632;28;20183;-69
2023/06/30 05:11:43;;;;;;;4.60;4.17;;;20.50;99.90;;;;;;4996784;28;20630;-71
2023/06/30 05:14:09;;;;;;;4.83;3.77;;;20.40;99.90;;;;;;4996304;28;20431;-71
2023/06/30 05:16:35;;;;;;;4.43;4.10;;;20.40;99.90;;;;;;4995427;28;20184;-72
2023/06/30 05:19:00;;;;;;;4.03;3.70;;;20.40;99.90;;;;;;4996476;28;20209;-68
2023/06/30 05:21:26;;;;;;;4.40;3.90;;;20.40;99.90;;;;;;4995919;28;20217;-73
2023/06/30 05:23:51;;;;;;;3.60;3.30;;;20.50;99.90;;;;;;4995987;28;20187;-70
2023/06/30 05:26:17;;;;;;;4.80;3.30;;;20.50;99.90;;;;;;4995185;28;20253;-72
2023/06/30 05:28:42;;;;;;;5.10;3.53;;;20.50;99.90;;;;;;4996516;28;20176;-70
2023/06/30 05:31:08;;;;;;;3.20;3.00;;;20.60;99.90;;;;;;4996508;28;20179;-70
2023/06/30 05:33:34;;;;;;;3.83;3.53;;;20.60;99.90;;;;;;4996195;28;20656;-71
2023/06/30 05:35:59;;;;;;;3.80;3.50;;;20.50;99.90;;;;;;4996141;28;20614;-71
2023/06/30 05:38:25;;;;;;;3.33;3.03;;;20.60;99.90;;;;;;4996289;28;20218;-73
2023/06/30 05:40:50;;;;;;;3.90;3.60;;;20.50;99.90;;;;;;4995793;28;20537;-71
2023/06/30 05:43:17;;;;;;;4.23;3.50;;;20.60;99.90;;;;;;4996010;28;20208;-71
2023/06/30 05:45:43;;;;;;;4.87;4.37;;;20.60;99.90;;;;;;4996078;28;20198;-62
2023/06/30 05:48:09;;;;;;;4.60;4.20;;;20.60;99.90;;;;;;4995577;28;20510;-63
2023/06/30 05:50:35;;;;;;;4.57;4.27;;;20.70;99.90;;;;;;4994949;28;20804;-63
2023/06/30 05:53:00;;;;;;;5.27;4.77;;;20.70;99.90;;;;;;4981555;28;20180;-64
2023/06/30 05:55:26;;;;;;;5.30;4.80;;;20.60;99.90;;;;;;4985992;28;20207;-60
2023/06/30 05:57:51;;;;;;;6.87;5.53;;;20.60;99.90;;;;;;4995646;28;20581;-61
2023/06/30 06:00:17;;;;;;;5.73;5.23;;;20.50;99.90;;;;;;4995474;28;20171;-61
2023/06/30 06:02:43;;;;;;;7.77;5.70;;;20.40;99.90;;;;;;4995447;28;20184;-65
2023/06/30 06:05:08;;;;;;;6.40;5.80;;;20.30;99.90;;;;;;4995077;28;20784;-63
2023/06/30 06:07:34;;;;;;;6.13;5.63;;;20.10;99.90;;;;;;4995153;28;20195;-65
2023/06/30 06:10:00;;;;;;;6.67;5.93;;;19.90;99.90;;;;;;4994765;28;20183;-64
2023/06/30 06:12:26;;;;;;;6.07;5.13;;;19.80;99.90;;;;;;4994240;28;20799;-65
2023/06/30 06:14:51;;;;;;;5.57;4.50;;;19.60;99.90;;;;;;4994633;28;20199;-64
2023/06/30 06:17:17;;;;;;;5.80;4.77;;;19.50;99.90;;;;;;4995493;28;20270;-64
2023/06/30 06:19:42;;;;;;;5.53;5.00;;;19.40;99.90;;;;;;4995735;28;20175;-66
2023/06/30 06:22:08;;;;;;;5.53;5.03;;;19.20;99.90;;;;;;4995120;28;20171;-61
2023/06/30 06:24:34;;;;;;;6.47;5.07;;;19.20;99.90;;;;;;4995108;28;20247;-64
2023/06/30 06:26:59;;;;;;;5.67;5.03;;;19.10;99.90;;;;;;4995573;28;20593;-62
2023/06/30 06:29:25;;;;;;;5.87;5.30;;;18.90;99.90;;;;;;4995216;28;20222;-63
2023/06/30 06:31:51;;;;;;;5.77;5.10;;;18.80;99.90;;;;;;4995319;28;20278;-61
2023/06/30 06:34:18;;;;;;;5.70;5.20;;;18.70;99.90;;;;;;4993836;28;20174;-61
2023/06/30 06:36:44;;;;;;;6.57;5.47;;;18.60;99.90;;;;;;4995546;28;20408;-61
2023/06/30 06:39:10;;;;;;;5.63;4.80;;;18.50;99.90;;;;;;4994947;28;20488;-61
2023/06/30 06:41:36;;;;;;;6.90;6.33;;;18.40;99.90;;;;;;4995030;28;20446;-59
2023/06/30 06:44:01;;;;;;;8.13;7.50;;;18.30;99.90;;;;;;4993585;28;20931;-64
2023/06/30 06:46:28;;;;;;;9.00;6.40;;;18.30;99.90;;;;;;4994990;28;20536;-60
2023/06/30 06:48:54;;;;;;;9.30;6.57;;;18.20;99.90;;;;;;4994708;28;20181;-62
2023/06/30 06:51:20;;;;;;;6.97;6.37;;;18.20;99.90;;;;;;4994705;28;20938;-58
2023/06/30 06:53:46;;;;;;;7.70;6.30;;;18.20;99.90;;;;;;4994196;28;20414;-60
2023/06/30 06:56:21;;;;;;;6.10;5.70;;;18.20;99.90;;;;;;5070079;28;20535;-61
2023/06/30 06:58:47;;;;;;;7.40;6.33;;;18.20;99.90;;;;;;5049861;28;20538;-60
2023/06/30 07:01:13;;;;;;;6.87;6.27;;;18.20;99.90;;;;;;5050902;28;20182;-60
2023/06/30 07:03:39;;;;;;;6.67;5.97;;;18.20;99.90;;;;;;5049890;28;20660;-59
2023/06/30 07:06:08;;;;;;;7.87;7.10;;;18.30;99.90;;;;;;5050693;28;20292;-60
2023/06/30 07:08:35;;;;;;;7.53;6.67;;;18.30;99.90;;;;;;5050630;28;20393;-60
2023/06/30 07:11:01;;;;;;;7.63;6.93;;;18.30;99.90;;;;;;5050484;28;20776;-61
2023/06/30 07:13:27;;;;;;;7.20;6.07;;;18.30;99.90;;;;;;5049705;28;20817;-58
2023/06/30 07:15:53;;;;;;;8.03;7.33;;;18.30;99.90;;;;;;5049672;28;20457;-57
2023/06/30 07:18:20;;;;;;;7.80;7.10;;;18.30;99.90;;;;;;5049760;28;20201;-59
2023/06/30 07:20:50;;;;;;;7.67;6.13;;;18.30;99.90;;;;;;5049833;28;20466;-61
2023/06/30 07:23:15;;;;;;;7.60;6.80;;;18.30;99.90;;;;;;5049501;28;20431;-61
2023/06/30 07:25:42;;;;;;;7.73;7.00;;;18.40;99.90;;;;;;5050184;28;20422;-62
2023/06/30 07:28:07;;;;;;;7.70;7.10;;;18.40;99.90;;;;;;5050098;28;20678;-61
2023/06/30 07:30:33;;;;;;;7.70;7.00;;;18.60;99.90;;;;;;5050208;28;20418;-61
2023/06/30 07:32:58;;;;;;;7.60;6.83;;;18.70;99.90;;;;;;5049976;28;20534;-63
2023/06/30 07:35:24;;;;;;;7.37;6.63;;;18.80;99.90;;;;;;5049502;28;20212;-62
2023/06/30 07:37:51;;;;;;;6.93;6.30;;;18.90;99.90;;;;;;5050218;28;20236;-62
2023/06/30 07:40:17;;;;;;;9.93;8.07;;;19.00;99.90;;;;;;5049826;28;20180;-62
2023/06/30 07:42:44;;;;;;;7.50;6.80;;;19.00;99.90;;;;;;5049936;28;20770;-63
2023/06/30 07:45:11;;;;;;;12.27;8.70;;;18.90;99.90;;;;;;5049197;28;21027;-59
2023/06/30 07:47:40;;;;;;;7.60;6.90;;;18.90;99.90;;;;;;5049588;28;20427;-64
2023/06/30 07:50:09;;;;;;;7.27;6.37;;;19.00;99.90;;;;;;5049738;28;20408;-58
2023/06/30 07:52:55;;;;;;;8.30;7.20;;;19.00;99.90;;;;;;5049615;28;20406;-62
2023/06/30 07:55:21;;;;;;;7.00;6.40;;;19.00;99.90;;;;;;5048746;28;20479;-61
2023/06/30 07:57:48;;;;;;;8.60;7.20;;;19.00;99.90;;;;;;5049510;28;20902;-61
2023/06/30 08:00:20;;;;;;;6.63;5.87;;;19.00;99.90;;;;;;5049531;28;20196;-59
2023/06/30 08:02:46;;;;;;;7.97;7.37;;;19.00;99.90;;;;;;5049100;28;20427;-62
2023/06/30 08:05:12;;;;;;;7.93;6.20;;;19.10;99.90;;;;;;5047915;28;20435;-63
2023/06/30 08:07:38;;;;;;;6.77;6.10;;;19.10;99.90;;;;;;5036341;28;20420;-60
2023/06/30 08:10:04;;;;;;;6.23;5.73;;;19.10;99.90;;;;;;5036132;28;20421;-59
2023/06/30 08:12:30;;;;;;;8.60;6.20;;;19.10;99.90;;;;;;5035938;28;20956;-60
2023/06/30 08:14:55;;;;;;;9.07;7.20;;;19.10;99.90;;;;;;5035647;28;20469;-58
2023/06/30 08:17:21;;;;;;;8.20;7.40;;;19.10;99.90;;;;;;5035906;28;20548;-59
2023/06/30 08:19:46;;;;;;;11.07;9.17;;;19.10;99.90;;;;;;5035953;28;20202;-59
2023/06/30 08:22:18;;;;;;;11.50;8.03;;;19.10;99.90;;;;;;5035912;28;20178;-61
2023/06/30 08:24:43;;;;;;;8.70;7.63;;;19.10;99.90;;;;;;5035509;28;20209;-59
2023/06/30 08:27:09;;;;;;;11.10;8.30;;;19.10;99.90;;;;;;5036039;28;20420;-59
2023/06/30 08:29:36;;;;;;;9.07;7.93;;;19.10;99.90;;;;;;5035786;28;20516;-60
2023/06/30 08:32:02;;;;;;;11.93;8.73;;;19.20;99.90;;;;;;5035947;28;20411;-59
2023/06/30 08:34:27;;;;;;;9.87;8.80;;;19.20;99.90;;;;;;5035341;28;20487;-61
2023/06/30 08:36:54;;;;;;;8.23;6.80;;;19.30;99.90;;;;;;5035829;28;20408;-58
2023/06/30 08:39:20;;;;;;;8.50;6.33;;;19.30;99.90;;;;;;5035682;28;20281;-60
2023/06/30 08:41:49;;;;;;;7.03;6.33;;;19.30;99.90;;;;;;5034312;28;20767;-60
2023/06/30 08:44:17;;;;;;;8.17;5.77;;;19.30;99.90;;;;;;5035243;28;20378;-62
2023/06/30 08:46:43;;;;;;;6.80;6.10;;;19.30;99.90;;;;;;5035671;28;20805;-61
2023/06/30 08:49:09;;;;;;;8.10;5.73;;;19.30;99.90;;;;;;5035412;28;20420;-62
2023/06/30 08:51:35;;;;;;;8.90;7.57;;;19.20;99.90;;;;;;5035549;28;20412;-59
2023/06/30 08:54:01;;;;;;;8.40;5.93;;;19.20;99.90;;;;;;5034801;28;20411;-62
2023/06/30 08:56:27;;;;;;;11.63;5.80;;;19.20;99.90;;;;;;5035347;28;20759;-60
2023/06/30 08:58:53;;;;;;;7.13;5.50;;;19.20;99.90;;;;;;5035259;28;20170;-62
2023/06/30 09:01:19;;;;;;;9.80;6.97;;;19.30;99.90;;;;;;5035343;28;20416;-61
2023/06/30 09:03:45;;;;;;;6.37;5.77;;;19.30;99.90;;;;;;5034609;28;20171;-59
2023/06/30 09:06:12;;;;;;;7.50;6.33;;;19.30;99.90;;;;;;5034995;28;20482;-59
2023/06/30 09:08:51;;;;;;;7.70;6.30;;;19.40;99.90;;;;;;5035160;28;20178;-59
2023/06/30 09:11:19;;;;;;;8.30;6.00;;;19.40;99.90;;;;;;5034892;28;20917;-62
2023/06/30 09:13:45;;;;;;;6.83;6.13;;;19.40;99.90;;;;;;5034587;28;20486;-59
2023/06/30 09:16:17;;;;;;;8.33;6.87;;;19.30;99.90;;;;;;5034935;28;20443;-62
2023/06/30 09:18:44;;;;;;;7.20;6.40;;;19.30;99.90;;;;;;5033862;28;20425;-59
2023/06/30 09:21:10;;;;;;;8.50;6.00;;;19.30;99.90;;;;;;5034584;28;20437;-62
2023/06/30 09:23:37;;;;;;;8.20;6.43;;;19.40;99.90;;;;;;5034701;28;20736;-59
2023/06/30 09:26:12;;;;;;;10.50;8.27;;;19.40;99.90;;;;;;5035286;28;20437;-63
2023/06/30 09:28:39;;;;;;;9.30;8.27;;;19.40;99.90;;;;;;5037078;28;20834;-63
2023/06/30 09:31:05;;;;;;;10.93;8.73;;;19.40;99.90;;;;;;5036779;28;20422;-63
2023/06/30 09:33:34;;;;;;;11.40;8.20;;;19.50;99.90;;;;;;5037541;28;20421;-58
2023/06/30 09:36:00;;;;;;;12.60;9.37;;;19.50;99.90;;;;;;5039077;28;20262;-63
2023/06/30 09:38:28;;;;;;;9.20;6.97;;;19.50;99.90;;;;;;5036287;28;20412;-60
2023/06/30 09:40:54;;;;;;;9.00;8.20;;;19.50;99.90;;;;;;5035416;28;20631;-62
2023/06/30 09:43:21;;;;;;;7.80;6.63;;;19.50;99.90;;;;;;5033997;28;20400;-59
2023/06/30 09:45:56;;;;;;;9.70;7.40;;;19.60;99.90;;;;;;5034302;28;20429;-59
2023/06/30 09:48:34;;;;;;;7.13;6.33;;;19.70;99.90;;;;;;5034514;28;20408;-58
2023/06/30 09:51:00;;;;;;;7.47;6.60;;;19.70;99.90;;;;;;5034186;28;20436;-63
2023/06/30 09:53:34;;;;;;;10.67;7.77;;;19.70;99.90;;;;;;5033865;28;20403;-59
2023/06/30 09:56:00;;;;;;;11.00;7.13;;;19.70;99.90;;;;;;5033793;28;20703;-62
2023/06/30 09:58:25;;;;;;;10.33;6.40;;;19.80;99.90;;;;;;5032965;28;20383;-61
2023/06/30 10:00:51;;;;;;;9.80;7.27;;;19.80;99.90;;;;;;5034227;28;20170;-61
2023/06/30 10:03:18;;;;;;;6.43;5.63;;;19.80;99.90;;;;;;5033587;28;20173;-59
2023/06/30 10:05:45;;;;;;;10.40;7.20;;;19.90;99.90;;;;;;5033740;28;20205;-62
2023/06/30 10:08:12;;;;;;;12.00;7.10;;;20.00;99.90;;;;;;5033940;28;20407;-61
2023/06/30 10:10:41;;;;;;;10.10;6.03;;;20.00;99.90;;;;;;5033587;28;20405;-60
2023/06/30 10:13:07;;;;;;;7.70;6.90;;;20.10;99.90;;;;;;5033565;28;20745;-61
2023/06/30 10:15:33;;;;;;;6.10;5.50;;;20.20;99.90;;;;;;5033453;28;20543;-63
2023/06/30 10:17:59;;;;;;;7.50;6.30;;;20.30;99.90;;;;;;5033685;28;20720;-60
2023/06/30 10:20:25;;;;;;;7.80;7.00;;;20.30;99.90;;;;;;5033708;28;20413;-63
2023/06/30 10:22:52;;;;;;;6.90;6.30;;;20.40;99.90;;;;;;5033673;28;20375;-60
2023/06/30 10:25:20;;;;;;;6.87;6.00;;;20.50;99.90;;;;;;5032986;28;20436;-62
2023/06/30 10:27:47;;;;;;;8.77;6.27;;;20.50;99.90;;;;;;5033307;28;20462;-61
2023/06/30 10:30:13;;;;;;;8.57;6.20;;;20.50;99.90;;;;;;5033226;28;20913;-59
2023/06/30 10:32:39;;;;;;;6.83;6.23;;;20.60;99.90;;;;;;5033486;28;20989;-63
2023/06/30 10:35:08;;;;;;;7.40;6.07;;;20.60;99.90;;;;;;5033048;28;20457;-60
2023/06/30 10:37:34;;;;;;;8.47;6.80;;;20.60;99.90;;;;;;5033360;28;20406;-60
2023/06/30 10:40:00;;;;;;;5.77;5.27;;;20.70;99.90;;;;;;5033188;28;20418;-61
2023/06/30 10:42:26;;;;;;;6.03;5.43;;;20.80;99.90;;;;;;5033159;28;20405;-61
2023/06/30 10:44:57;;;;;;;6.70;5.10;;;20.80;99.90;;;;;;5033089;28;20242;-58
2023/06/30 10:47:27;;;;;;;6.50;5.90;;;20.90;99.90;;;;;;5033448;28;20409;-64
2023/06/30 10:49:53;;;;;;;8.73;5.03;;;21.00;99.90;;;;;;5033230;28;20395;-59
2023/06/30 10:52:27;;;;;;;7.67;6.90;;;21.00;99.90;;;;;;5033141;28;20467;-59
2023/06/30 10:54:53;;;;;;;6.03;5.53;;;21.20;99.90;;;;;;5032376;28;20464;-59
2023/06/30 10:57:24;;;;;;;11.20;6.27;;;21.30;99.90;;;;;;5033346;28;20383;-61
2023/06/30 11:00:06;;;;;;;7.10;6.03;;;21.30;99.90;;;;;;5033140;28;20599;-60
2023/06/30 11:02:33;;;;;;;6.03;5.13;;;21.40;99.90;;;;;;5033022;28;20957;-61
2023/06/30 11:05:18;;;;;;;6.53;5.20;;;21.50;99.90;;;;;;5032614;28;20474;-60
2023/06/30 11:07:49;;;;;;;7.93;6.20;;;21.40;99.90;;;;;;5033436;28;20745;-61
2023/06/30 11:10:36;;;;;;;7.43;5.60;;;21.30;99.90;;;;;;5033120;28;20521;-60
2023/06/30 11:13:09;;;;;;;9.33;6.77;;;21.20;99.90;;;;;;5033080;28;20413;-61
2023/06/30 11:15:41;;;;;;;9.17;8.00;;;21.10;99.90;;;;;;5032906;28;20431;-60
2023/06/30 11:18:21;;;;;;;8.17;6.67;;;21.00;99.90;;;;;;5033002;28;20462;-60
2023/06/30 11:20:59;;;;;;;7.27;6.57;;;21.00;99.90;;;;;;5032974;28;20404;-60
2023/06/30 11:23:27;;;;;;;10.27;7.00;;;21.10;99.90;;;;;;5032735;28;20410;-60
2023/06/30 11:25:57;;;;;;;8.97;6.83;;;21.20;99.90;;;;;;5032777;28;20464;-60
2023/06/30 11:28:26;;;;;;;10.63;7.40;;;21.30;99.90;;;;;;5032878;28;20419;-60
2023/06/30 11:30:52;;;;;;;10.87;7.73;;;21.40;99.90;;;;;;5032968;28;20783;-60
2023/06/30 11:33:18;;;;;;;10.27;6.70;;;21.50;99.90;;;;;;5032513;28;20413;-61
2023/06/30 11:35:50;;;;;;;9.47;7.60;;;21.60;99.90;;;;;;5032601;28;20670;-60
2023/06/30 11:38:16;;;;;;;10.33;7.33;;;21.70;99.90;;;;;;5031553;28;20539;-60
2023/06/30 11:40:49;;;;;;;7.97;7.17;;;21.80;99.90;;;;;;5032439;28;20479;-62
2023/06/30 11:43:16;;;;;;;9.13;7.93;;;21.80;99.90;;;;;;5036194;28;20407;-60
2023/06/30 11:45:42;;;;;;;9.83;8.27;;;21.80;99.90;;;;;;5035757;28;20404;-60
2023/06/30 11:48:08;;;;;;;7.87;7.10;;;21.80;99.90;;;;;;5036518;28;20410;-60
2023/06/30 11:50:33;;;;;;;10.70;9.10;;;21.90;99.90;;;;;;5036560;28;20399;-61
2023/06/30 11:53:02;;;;;;;9.90;8.60;;;21.90;99.90;;;;;;5036255;28;20166;-61
2023/06/30 11:55:28;;;;;;;8.43;7.33;;;21.90;99.90;;;;;;5035638;28;20205;-61
2023/06/30 11:57:54;;;;;;;7.80;7.00;;;22.00;99.90;;;;;;5036384;28;20396;-60
2023/06/30 12:00:22;;;;;;;12.30;8.90;;;22.00;99.90;;;;;;5036157;28;20440;-60
2023/06/30 12:02:50;;;;;;;10.60;8.33;;;21.90;99.90;;;;;;5036272;28;20933;-61
2023/06/30 12:05:23;;;;;;;7.53;6.83;;;21.90;99.90;;;;;;5035796;28;20411;-61
2023/06/30 12:07:51;;;;;;;8.83;7.77;;;22.00;99.90;;;;;;5036041;28;20392;-59
2023/06/30 12:10:17;;;;;;;9.53;6.97;;;22.10;99.90;;;;;;5035441;28;20437;-62
2023/06/30 12:12:43;;;;;;;7.80;7.00;;;22.20;99.90;;;;;;5034967;28;20386;-63
2023/06/30 12:15:11;;;;;;;9.80;6.70;;;22.20;99.90;;;;;;5033840;28;20511;-61
2023/06/30 12:17:43;;;;;;;9.97;8.40;;;22.40;99.90;;;;;;5035733;28;20634;-61
2023/06/30 12:20:10;;;;;;;7.30;6.53;;;22.50;99.90;;;;;;5035134;28;20387;-61
2023/06/30 12:22:41;;;;;;;9.90;7.40;;;22.70;99.90;;;;;;5036052;28;20463;-61
2023/06/30 12:25:08;;;;;;;8.83;7.93;;;23.00;99.90;;;;;;5034134;28;20444;-62
2023/06/30 12:27:35;;;;;;;9.17;7.77;;;23.20;99.90;;;;;;5035990;28;20372;-62
2023/06/30 12:30:01;;;;;;;8.53;7.53;;;23.30;99.90;;;;;;5035773;28;20774;-60
2023/06/30 12:32:28;;;;;;;8.37;7.37;;;23.40;99.90;;;;;;5035760;28;20462;-61
2023/06/30 12:34:58;;;;;;;7.57;6.80;;;23.60;99.90;;;;;;5035139;28;20826;-60
2023/06/30 12:37:28;;;;;;;9.70;6.83;;;23.60;99.90;;;;;;5036115;28;20389;-63
2023/06/30 12:39:54;;;;;;;9.33;8.30;;;23.70;99.90;;;;;;5035654;28;20409;-59
2023/06/30 12:42:22;;;;;;;9.10;7.97;;;23.70;99.90;;;;;;5035742;28;20439;-62
2023/06/30 12:44:48;;;;;;;8.73;6.60;;;23.70;99.90;;;;;;5034968;28;20696;-61
2023/06/30 12:47:13;;;;;;;10.13;7.07;;;23.80;99.90;;;;;;5035259;28;20417;-63
2023/06/30 12:49:39;;;;;;;10.47;7.63;;;23.70;99.90;;;;;;5035346;28;20170;-60
2023/06/30 12:52:05;;;;;;;7.00;6.30;;;23.70;99.90;;;;;;5035184;28;20660;-63
2023/06/30 12:54:31;;;;;;;7.40;6.70;;;23.70;99.90;;;;;;5034809;28;20465;-61
2023/06/30 12:56:56;;;;;;;13.13;7.90;;;23.80;99.90;;;;;;5035578;28;20404;-62
2023/06/30 12:59:22;;;;;;;9.10;7.20;;;23.80;99.90;;;;;;5035044;28;20655;-62
2023/06/30 13:01:48;;;;;;;6.77;6.07;;;23.80;99.90;;;;;;5035234;28;20162;-60
2023/06/30 13:04:14;;;;;;;6.80;5.90;;;23.90;99.90;;;;;;5034822;28;20687;-62
2023/06/30 13:06:40;;;;;;;8.30;7.33;;;23.90;99.90;;;;;;5035115;28;20262;-61
2023/06/30 13:09:06;;;;;;;8.30;6.80;;;23.80;99.90;;;;;;5034940;28;20383;-63
2023/06/30 13:11:33;;;;;;;7.33;6.57;;;23.90;99.90;;;;;;5035016;28;20401;-60
2023/06/30 13:13:59;;;;;;;8.33;6.90;;;23.90;99.90;;;;;;5034564;28;20459;-62
2023/06/30 13:16:25;;;;;;;8.93;7.13;;;24.00;99.90;;;;;;5034933;28;20419;-60
2023/06/30 13:18:51;;;;;;;10.50;7.43;;;24.20;99.90;;;;;;5034804;28;20404;-60
2023/06/30 13:21:17;;;;;;;8.77;6.67;;;24.40;99.90;;;;;;5034820;28;20402;-62
2023/06/30 13:23:42;;;;;;;9.10;7.00;;;24.50;99.90;;;;;;5034421;28;20217;-63
2023/06/30 13:26:08;;;;;;;7.53;6.73;;;24.70;99.90;;;;;;5034351;28;20236;-60
2023/06/30 13:28:35;;;;;;;8.80;7.63;;;24.80;99.90;;;;;;5033826;28;20253;-62
2023/06/30 13:31:04;;;;;;;7.10;6.40;;;25.00;99.90;;;;;;5033831;28;20190;-60
2023/06/30 13:33:30;;;;;;;9.03;6.63;;;25.20;99.90;;;;;;5033239;28;20409;-63
2023/06/30 13:35:56;;;;;;;6.00;5.33;;;25.30;99.90;;;;;;5025530;28;20506;-60
2023/06/30 13:38:22;;;;;;;6.90;6.00;;;25.50;99.90;;;;;;5032004;28;20398;-60
2023/06/30 13:40:47;;;;;;;6.77;6.07;;;25.70;99.90;;;;;;5033793;28;20579;-64
2023/06/30 13:43:13;;;;;;;14.13;8.13;;;25.70;99.90;;;;;;5033381;28;20173;-63
2023/06/30 13:45:38;;;;;;;9.13;8.10;;;25.90;99.90;;;;;;5032827;28;20533;-62
2023/06/30 13:48:06;;;;;;;13.37;9.13;;;26.00;99.90;;;;;;5033276;28;20183;-61
2023/06/30 13:50:32;;;;;;;11.00;8.93;;;25.80;99.90;;;;;;5032551;28;20556;-61
2023/06/30 13:52:58;;;;;;;9.93;7.80;;;25.70;99.90;;;;;;5032973;28;20397;-59
2023/06/30 13:55:24;;;;;;;9.47;7.10;;;25.60;99.90;;;;;;5032901;28;20844;-63
2023/06/30 13:57:51;;;;;;;8.17;6.70;;;25.40;99.90;;;;;;5033223;28;20782;-60
2023/06/30 14:00:17;;;;;;;9.93;8.30;;;25.30;99.90;;;;;;5034056;28;20490;-61
2023/06/30 14:02:43;;;;;;;10.63;6.90;;;25.30;99.90;;;;;;5033994;28;20422;-62
2023/06/30 14:05:08;;;;;;;11.37;7.90;;;25.30;99.90;;;;;;5033047;28;20429;-60
2023/06/30 14:07:34;;;;;;;9.90;7.40;;;25.40;99.90;;;;;;5033934;28;20186;-63
2023/06/30 14:09:59;;;;;;;12.33;7.37;;;25.60;99.90;;;;;;5033970;28;20181;-60
2023/06/30 14:12:25;;;;;;;7.77;6.97;;;25.60;99.90;;;;;;5033608;28;20167;-60
2023/06/30 14:14:51;;;;;;;9.33;7.80;;;25.50;99.90;;;;;;5033092;28;20190;-61
2023/06/30 14:17:16;;;;;;;12.47;8.60;;;25.30;99.90;;;;;;5033792;28;20174;-62
2023/06/30 14:19:42;;;;;;;9.70;8.00;;;25.20;99.90;;;;;;5034741;28;20162;-59
2023/06/30 14:22:07;;;;;;;11.70;8.77;;;25.00;99.90;;;;;;5044614;28;20167;-63
2023/06/30 14:24:33;;;;;;;8.40;6.67;;;24.90;99.90;;;;;;5031960;28;20337;-62
2023/06/30 14:26:59;;;;;;;8.00;6.80;;;24.70;99.90;;;;;;5047571;28;20170;-59
2023/06/30 14:29:25;;;;;;;9.17;7.30;;;24.50;99.90;;;;;;5053374;28;20639;-63
2023/06/30 14:31:51;;;;;;;9.27;8.37;;;24.20;99.90;;;;;;5053307;28;20227;-60
2023/06/30 14:34:16;;;;;;;9.23;7.73;;;23.60;99.90;;;;;;5053096;28;20400;-62
2023/06/30 14:36:43;;;;;;;11.00;8.17;;;23.10;99.90;;;;;;5051834;28;20399;-64
2023/06/30 14:39:09;;;;;;;9.30;8.17;;;22.50;99.90;;;;;;5053407;28;20177;-65
2023/06/30 14:41:35;;;;;;;10.27;9.07;;;22.20;99.90;;;;;;5053314;28;20776;-62
2023/06/30 14:44:01;;;;;;;11.30;9.00;;;21.90;99.90;;;;;;5052531;28;20412;-60
2023/06/30 14:46:26;;;;;;;12.30;10.77;;;21.70;99.90;;;;;;5038996;28;20644;-62
2023/06/30 14:48:52;;;;;;;11.83;10.50;;;21.60;99.90;;;;;;5035242;28;20176;-59
2023/06/30 14:51:17;;;;;;;12.47;8.63;;;21.50;99.90;;;;;;5043946;28;20174;-62
2023/06/30 14:53:43;;;;;;;14.00;10.37;;;21.40;99.90;;;;;;5033032;28;20175;-58
2023/06/30 14:56:09;;;;;;;14.93;8.63;;;21.40;99.90;;;;;;5047156;28;20270;-59
2023/06/30 14:58:34;;;;;;;10.93;9.50;;;21.40;99.90;;;;;;5043954;28;20182;-59
2023/06/30 15:01:00;;;;;;;12.13;9.03;;;21.30;99.90;;;;;;5032691;28;20256;-63
2023/06/30 15:03:27;;;;;;;13.37;11.20;;;21.40;99.90;;;;;;5031647;28;20174;-60
2023/06/30 15:05:52;;;;;;;9.90;8.63;;;21.40;99.90;;;;;;5032424;28;20194;-62
2023/06/30 15:08:18;;;;;;;13.47;10.23;;;21.60;99.90;;;;;;5032451;28;20486;-62
2023/06/30 15:10:44;;;;;;;12.80;10.20;;;21.80;99.90;;;;;;5031949;28;20217;-62
2023/06/30 15:13:09;;;;;;;12.57;9.80;;;22.00;99.90;;;;;;5030916;28;20176;-61
2023/06/30 15:15:35;;;;;;;8.73;7.83;;;22.20;99.90;;;;;;5032391;28;20211;-60
2023/06/30 15:18:01;;;;;;;10.40;9.40;;;22.40;99.90;;;;;;5036255;28;20186;-61
2023/06/30 15:20:27;;;;;;;11.20;7.80;;;22.50;99.90;;;;;;5036479;28;20256;-61
2023/06/30 15:22:52;;;;;;;13.27;9.80;;;22.70;99.90;;;;;;5036396;28;20170;-60
2023/06/30 15:25:26;;;;;;;9.50;7.80;;;22.70;99.90;;;;;;5035933;28;20812;-61
2023/06/30 15:27:52;;;;;;;7.93;7.13;;;22.70;99.90;;;;;;5035620;28;20179;-61
2023/06/30 15:30:19;;;;;;;8.00;5.97;;;22.70;99.90;;;;;;5036821;28;20483;-60
2023/06/30 15:32:44;;;;;;;6.77;5.73;;;22.80;99.90;;;;;;5036673;28;20423;-60
2023/06/30 15:35:10;;;;;;;7.83;6.10;;;22.90;99.90;;;;;;5036254;28;20467;-59
2023/06/30 15:37:36;;;;;;;8.07;7.27;;;22.90;99.90;;;;;;5036684;28;20167;-58
2023/06/30 15:40:01;;;;;;;8.20;6.43;;;23.00;99.90;;;;;;5036629;28;20166;-60
2023/06/30 15:42:27;;;;;;;7.13;5.77;;;23.00;99.90;;;;;;5036699;28;20220;-60
2023/06/30 15:44:53;;;;;;;8.53;6.57;;;23.00;99.90;;;;;;5034917;28;20226;-64
2023/06/30 15:47:18;;;;;;;9.03;6.70;;;23.00;99.90;;;;;;5034645;28;20339;-61
2023/06/30 15:49:45;;;;;;;5.77;5.27;;;23.10;99.90;;;;;;5035400;28;20175;-62
2023/06/30 15:52:10;;;;;;;9.90;6.97;;;23.20;99.90;;;;;;5035545;28;20182;-63
2023/06/30 15:54:36;;;;;;;8.00;5.43;;;23.20;99.90;;;;;;5033663;28;20535;-66
2023/06/30 15:57:01;;;;;;;5.50;4.80;;;23.10;99.90;;;;;;5035939;28;20190;-66
2023/06/30 15:59:27;;;;;;;5.80;5.30;;;23.00;99.90;;;;;;5035389;28;20174;-61
2023/06/30 16:01:53;;;;;;;6.23;4.77;;;22.90;99.90;;;;;;5034739;28;20656;-61
2023/06/30 16:04:18;;;;;;;6.10;5.30;;;22.80;99.90;;;;;;5035821;28;20317;-60
2023/06/30 16:06:44;;;;;;;7.80;5.90;;;22.70;99.90;;;;;;5035470;28;20611;-60
2023/06/30 16:09:09;;;;;;;6.37;5.53;;;22.60;99.90;;;;;;5035916;28;20177;-61
2023/06/30 16:11:35;;;;;;;5.67;5.10;;;22.50;99.90;;;;;;5035350;28;20296;-62
2023/06/30 16:14:01;;;;;;;8.27;6.17;;;22.50;99.90;;;;;;5035067;28;20204;-63
2023/06/30 16:16:26;;;;;;;9.03;6.37;;;22.40;99.90;;;;;;5035381;28;20214;-60
2023/06/30 16:18:52;;;;;;;9.40;6.40;;;22.40;99.90;;;;;;5035120;28;20173;-65
2023/06/30 16:21:17;;;;;;;7.70;6.30;;;22.30;99.90;;;;;;5035610;28;20670;-62
2023/06/30 16:23:43;;;;;;;8.93;7.33;;;22.30;99.90;;;;;;5034552;28;20212;-63
2023/06/30 16:26:08;;;;;;;7.90;5.73;;;22.20;99.90;;;;;;5035200;28;20194;-62
2023/06/30 16:28:34;;;;;;;11.17;6.77;;;22.20;99.90;;;;;;5034699;28;20652;-64
2023/06/30 16:31:00;;;;;;;8.50;5.93;;;22.10;99.90;;;;;;5035006;28;20182;-67
2023/06/30 16:33:25;;;;;;;7.40;5.13;;;22.10;99.90;;;;;;5034992;28;20209;-61
2023/06/30 16:35:51;;;;;;;8.23;6.00;;;22.00;99.90;;;;;;5034565;28;20210;-62
2023/06/30 16:38:16;;;;;;;7.27;6.40;;;22.00;99.90;;;;;;5033932;28;20174;-61
2023/06/30 16:40:42;;;;;;;7.40;5.93;;;22.10;99.90;;;;;;5034949;28;20178;-66
2023/06/30 16:43:07;;;;;;;12.10;8.23;;;22.00;99.90;;;;;;5034016;28;20237;-68
2023/06/30 16:45:35;;;;;;;9.77;6.70;;;22.10;99.90;;;;;;5034625;28;20305;-61
2023/06/30 16:48:00;;;;;;;10.10;7.60;;;22.20;99.90;;;;;;5035226;28;20184;-62